Pagina principale
METAR-TAF:

METAR-TAF

Aeroporti :

Nouakchott, Mauritania

Aeroporto Internazionale di Nouakchott

latitudine: 18-18-36N, longitudine: 015-58-11W, altezza: 3 m

Osservazione

Il bollettino è stato emesso 23 minuti fa, alle 04:30 UTC
Vento 9 kt da nord
Temperature 16°C
Umidità 82%
Pressione 1011 hPa
Visibilità: 8000 m

METAR: GQNO 180430Z 36009KT 8000 NSC 16/13 Q1011 NOSIG

Ora: 04:53 (04:53 UTC)

Previsione

Il bollettino è stato emesso 5 ore e 53 minuti fa, alle 23:00 UTC
Previsione valida dal 18 alle 00 UTC al 19 alle 06 UTC
Vento 12 kt da nord
Visibilità: 8000 m
Evoluzione graduale
dal 18 alle 07 UTC al 18 alle 10 UTC
Vento 10 kt da nord-est
Evoluzione graduale
dal 18 alle 12 UTC al 18 alle 15 UTC
Vento 12 kt da nord/nord-ovest

TAF: GQNO 172300Z 1800/1906 35012KT 8000 NSC BECMG 1807/1810 05010KT BECMG 1812/1815 33012KT

Osservazioni e previsioni meteorologiche di più di 4000 aeroporti (messaggi METAR e TAF).

Le stazioni disponibili sono rappresentate dai dischi gialli e rossi sulla carta.

Puntare il mouse per vedere il nome della stazione.

Clicca sopra per visualizzare le osservazioni e previsioni meteorologiche.

Per cambiare la mappa : fare clic sui pulsanti verdi con una croce nera per ingrandire, il pulsante verde con un trattino per diminuire, o sulla freccia verde per le mappe adiacenti.


METAR-TAF: